WetterOnline ( https://www.wetteronline.de )

Wetter aktuell Dresden

Aktuelles Wetter: Dresden/Klotzsche (232m)

6-stündlich | Neueste Meldungen
Ortszeit Temperatur Wetter
So, 29.11. 1:00 1.2° C wolkig
Sa, 28.11. 19:00 2.7° C bedeckt
Sa, 28.11. 13:00 3.0° C bewölkt
Sa, 28.11. 7:00 1.1° C bedeckt
Sa, 28.11. 1:00 0.9° C Nebel (abnehmend)
Fr, 27.11. 19:00 0.1° C Nebelschwaden
Fr, 27.11. 13:00 4.0° C wolkig
Fr, 27.11. 7:00 1.8° C bewölkt
Ortszeit Temperatur Wetter
So, 29.11. 2:00 0.7° C leicht bewölkt
So, 29.11. 1:50 0.7° C bewölkt
So, 29.11. 1:40 0.7° C bewölkt
So, 29.11. 1:30 0.9° C bedeckt
So, 29.11. 1:20 0.9° C bedeckt
So, 29.11. 1:10 1.0° C bedeckt
So, 29.11. 1:00 1.2° C wolkig
So, 29.11. 0:30 1.5° C bedeckt
So, 29.11. 0:00 1.6° C bewölkt
Sa, 28.11. 23:30 1.7° C bedeckt
Sa, 28.11. 23:00 1.9° C bewölkt
Ortszeit Relative Feuchte Sichtweite
So, 29.11. 1:00 86% 45 km
Sa, 28.11. 19:00 70% 40 km
Sa, 28.11. 13:00 69% 40 km
Sa, 28.11. 7:00 99% 5.0 km
Sa, 28.11. 1:00 100% 0.7 km
Fr, 27.11. 19:00 95% 0.7 km
Fr, 27.11. 13:00 80% 15 km
Fr, 27.11. 7:00 89% 9 km
Ortszeit Relative Feuchte Sichtweite
So, 29.11. 2:00 90% 30 km
So, 29.11. 1:50 90% -
So, 29.11. 1:40 90% -
So, 29.11. 1:30 88% -
So, 29.11. 1:20 88% -
So, 29.11. 1:10 88% -
So, 29.11. 1:00 86% 45 km
So, 29.11. 0:30 85% 40 km
So, 29.11. 0:00 84% 40 km
Sa, 28.11. 23:30 82% 50 km
Sa, 28.11. 23:00 81% 40 km
Ortszeit Niederschlagsmenge Niederschlagsart
So, 29.11. 1:00 0.0 l/m2 in 6 Std. -
Sa, 28.11. 19:00 0.0 l/m2 in 12 Std. -
Sa, 28.11. 13:00 0.0 l/m2 in 6 Std. -
Sa, 28.11. 7:00 0.0 l/m2 in 12 Std. Nebel
Sa, 28.11. 1:00 0.0 l/m2 in 6 Std. Nebel
Fr, 27.11. 19:00 0.1 l/m2 in 12 Std. -
Fr, 27.11. 13:00 0.1 l/m2 in 6 Std. Regen
Fr, 27.11. 7:00 0.0 l/m2 in 12 Std. -
Ortszeit Niederschlagsmenge Niederschlagsart
So, 29.11. 2:00 0.0 l/m2 in 1 Std. -
So, 29.11. 1:50 keine Meldung -
So, 29.11. 1:40 keine Meldung -
So, 29.11. 1:30 0.0 l/m2 in 1 Std. -
So, 29.11. 1:20 keine Meldung -
So, 29.11. 1:10 keine Meldung -
So, 29.11. 1:00 0.0 l/m2 in 1 Std. -
So, 29.11. 0:30 0.0 l/m2 in 1 Std. -
So, 29.11. 0:00 0.0 l/m2 in 1 Std. -
Sa, 28.11. 23:30 0.0 l/m2 in 1 Std. -
Sa, 28.11. 23:00 0.0 l/m2 in 1 Std. -
Ortszeit Stärke Spitze Richtung
km/h Bft. km/h Grad Sektor
So, 29.11. 1:00 7 2 11 40° NO
Sa, 28.11. 19:00 7 2 22 50° NO
Sa, 28.11. 13:00 11 2 22 100° O
Sa, 28.11. 7:00 4 1 14 20° N
Sa, 28.11. 1:00 6 1 17 180° S
Fr, 27.11. 19:00 7 2 22 110° O
Fr, 27.11. 13:00 9 2 15 170° S
Fr, 27.11. 7:00 7 2 22 180° S
Ortszeit Stärke Spitze Richtung
km/h Bft. km/h Grad Sektor
So, 29.11. 2:00 4 1 11 10° N
So, 29.11. 1:50 4 1 - 10° N
So, 29.11. 1:40 7 2 - 20° N
So, 29.11. 1:30 7 2 11 20° N
So, 29.11. 1:20 7 2 - 20° N
So, 29.11. 1:10 7 2 - 20° N
So, 29.11. 1:00 7 2 11 40° NO
So, 29.11. 0:30 7 2 7 20° N
So, 29.11. 0:00 6 1 7 10° N
Sa, 28.11. 23:30 6 1 7 10° N
Sa, 28.11. 23:00 6 1 7 10° N
Ortszeit Untergrenze Bedeckung Gattung
total tief tief mittel hoch
So, 29.11. 1:00 600 m 6/8 6/8 Cu - -
Sa, 28.11. 19:00 900 m 8/8 7/8 Sc - -
Sa, 28.11. 13:00 660 m 7/8 7/8 Sc - -
Sa, 28.11. 7:00 120 m 8/8 8/8 St - -
Sa, 28.11. 1:00 <30 m 8/8 0/8 - - -
Fr, 27.11. 19:00 30 m 4/8 4/8 St - -
Fr, 27.11. 13:00 1260 m 6/8 2/8 Sc Ac -
Fr, 27.11. 7:00 1200 m 7/8 7/8 Sc - -
Ortszeit Bedeckungsgrad in Achtel und Wolkenuntergrenze
So, 29.11. 2:00 1(600m) 3(930m)
So, 29.11. 1:50 7(1020m)
So, 29.11. 1:40 7(1050m)
So, 29.11. 1:30 8(1050m)
So, 29.11. 1:20 8(1050m)
So, 29.11. 1:10 8(1080m)
So, 29.11. 1:00 1(600m) 6(1050m)
So, 29.11. 0:30 8(1110m)
So, 29.11. 0:00 2(630m) 7(1140m)
Sa, 28.11. 23:30 1(420m) 8(1110m)
Sa, 28.11. 23:00 2(570m) 7(1050m)
Ortszeit Luftdruck NN (hPa) Tendenz (hPa in 3 Std.)
So, 29.11. 1:00 1026 - 0,2
Sa, 28.11. 19:00 1026 + 1,2
Sa, 28.11. 13:00 1025 - 0,1
Sa, 28.11. 7:00 1024 + 0,4
Sa, 28.11. 1:00 1023 - 0,2
Fr, 27.11. 19:00 1023 + 0,6
Fr, 27.11. 13:00 1022 - 0,5
Fr, 27.11. 7:00 1022 + 0,1
Ortszeit Luftdruck NN (hPa) Tendenz (hPa in 3 Std.)
So, 29.11. 2:00 1026 - 0,4
So, 29.11. 1:50 1026 keine Meldung
So, 29.11. 1:40 1026 keine Meldung
So, 29.11. 1:30 1026 - 0,3
So, 29.11. 1:20 1026 keine Meldung
So, 29.11. 1:10 1026 keine Meldung
So, 29.11. 1:00 1026 - 0,2
So, 29.11. 0:30 1026 - 0,1
So, 29.11. 0:00 1027 + 0,2
Sa, 28.11. 23:30 1027 + 0,2
Sa, 28.11. 23:00 1027 + 0,4
Ortszeit Schneehöhe (cm)
So, 29.11. 1:00 0
Sa, 28.11. 19:00 0
Sa, 28.11. 13:00 0
Sa, 28.11. 7:00 0
Sa, 28.11. 1:00 0
Fr, 27.11. 19:00 0
Fr, 27.11. 13:00 0
Fr, 27.11. 7:00 0
Ortszeit Schneehöhe (cm)
So, 29.11. 2:00 0
So, 29.11. 1:50 0
So, 29.11. 1:40 0
So, 29.11. 1:30 0
So, 29.11. 1:20 0
So, 29.11. 1:10 0
So, 29.11. 1:00 0
So, 29.11. 0:30 0
So, 29.11. 0:00 0
Sa, 28.11. 23:30 0
Sa, 28.11. 23:00 0
Link zu dieser Seite / Seite empfehlen

Das Wetter in ...